createdAt,value
2023-03-06T00:00:37.120Z,97471.72
2023-03-06T00:01:33.382Z,97470.3
2023-03-06T00:02:33.404Z,97476.38
2023-03-06T00:03:33.576Z,97475.02
2023-03-06T00:04:33.414Z,97472.09
2023-03-06T00:05:33.484Z,97472.84
2023-03-06T00:06:33.414Z,97474.2
2023-03-06T00:07:33.468Z,97474.34
2023-03-06T00:08:33.516Z,97478.72
2023-03-06T00:09:33.494Z,97479.23
2023-03-06T00:10:33.534Z,97480.71
2023-03-06T00:11:33.507Z,97478.83
2023-03-06T00:12:33.522Z,97478.75
2023-03-06T00:13:33.548Z,97475.84
2023-03-06T00:14:33.675Z,97476.91
2023-03-06T00:15:34.357Z,97475.05
2023-03-06T00:16:34.245Z,97473.14
2023-03-06T00:17:34.101Z,97467.33
2023-03-06T00:18:34.256Z,97471.34
2023-03-06T00:19:34.147Z,97470.39
2023-03-06T00:20:35.011Z,97470.58
2023-03-06T00:21:34.132Z,97470.86
2023-03-06T00:22:34.287Z,97472.22
2023-03-06T00:23:34.229Z,97468.72
2023-03-06T00:24:34.200Z,97471.74
2023-03-06T00:25:34.414Z,97473.52
2023-03-06T00:26:34.248Z,97481.83
2023-03-06T00:27:34.302Z,97470.44
2023-03-06T00:28:34.681Z,97472.59
2023-03-06T00:29:34.286Z,97470.21
2023-03-06T00:30:34.295Z,97469.2
2023-03-06T00:31:34.400Z,97472.55
2023-03-06T00:32:34.420Z,97469.3
2023-03-06T00:33:34.346Z,97467.96
2023-03-06T00:34:34.416Z,97462.67
2023-03-06T00:35:34.474Z,97470.23
2023-03-06T00:36:34.438Z,97460.66
2023-03-06T00:37:34.496Z,97461.22
2023-03-06T00:38:34.456Z,97460.58
2023-03-06T00:39:34.501Z,97464.78
2023-03-06T00:40:34.466Z,97463.69
2023-03-06T00:41:34.496Z,97460.34
2023-03-06T00:42:34.516Z,97458.3
2023-03-06T00:43:34.509Z,97458.52
2023-03-06T00:44:35.000Z,97462.05
2023-03-06T00:45:34.630Z,97463.47
2023-03-06T00:46:34.602Z,97463.62
2023-03-06T00:47:34.660Z,97458.42
2023-03-06T00:48:34.759Z,97460.09
2023-03-06T00:49:34.900Z,97462.2
2023-03-06T00:50:34.637Z,97464.27
2023-03-06T00:51:34.644Z,97466.47
2023-03-06T00:52:34.697Z,97465.05
2023-03-06T00:53:35.146Z,97464.05
2023-03-06T00:54:35.247Z,97459.56
2023-03-06T00:55:35.237Z,97459.79
2023-03-06T00:56:35.201Z,97459.33
2023-03-06T00:57:35.207Z,97461.33
2023-03-06T00:58:35.238Z,97462.31
2023-03-06T00:59:35.405Z,97459.7
2023-03-06T01:00:35.272Z,97460.9
2023-03-06T01:01:35.303Z,97458.52
2023-03-06T01:02:35.430Z,97458.02
2023-03-06T01:03:35.327Z,97449.56
2023-03-06T01:04:35.379Z,97451.48
2023-03-06T01:05:36.323Z,97454.73
2023-03-06T01:06:35.708Z,97448.66
2023-03-06T01:07:35.381Z,97451.91
2023-03-06T01:08:35.395Z,97449.67
2023-03-06T01:09:35.443Z,97450.66
2023-03-06T01:10:39.249Z,97448.65
2023-03-06T01:11:35.452Z,97451.92
2023-03-06T01:12:35.492Z,97450.27
2023-03-06T01:13:35.507Z,97447.16
2023-03-06T01:14:35.562Z,97445.75
2023-03-06T01:15:35.551Z,97443.97
2023-03-06T01:16:35.721Z,97444.68
2023-03-06T01:17:35.597Z,97438.97
2023-03-06T01:18:36.092Z,97436.75
2023-03-06T01:19:35.823Z,97439.3
2023-03-06T01:20:35.620Z,97444.2
2023-03-06T01:21:35.722Z,97441.14
2023-03-06T01:22:35.647Z,97443.88
2023-03-06T01:23:35.677Z,97444.56
2023-03-06T01:24:35.702Z,97443.19
2023-03-06T01:25:35.733Z,97441.11
2023-03-06T01:26:35.741Z,97439.52
2023-03-06T01:27:35.770Z,97440.55
2023-03-06T01:28:36.484Z,97439.8
2023-03-06T01:29:35.752Z,97438.91
2023-03-06T01:30:35.792Z,97440.91
2023-03-06T01:31:35.996Z,97437.19
2023-03-06T01:32:35.812Z,97436.98
2023-03-06T01:33:36.027Z,97442.83
2023-03-06T01:34:35.854Z,97444.52
2023-03-06T01:35:37.452Z,97439.61
2023-03-06T01:36:35.928Z,97440.27
2023-03-06T01:37:36.504Z,97439.12
2023-03-06T01:38:35.943Z,97445.97
2023-03-06T01:39:35.939Z,97450.22
2023-03-06T01:40:36.973Z,97444.25
2023-03-06T01:41:36.311Z,97445.06
2023-03-06T01:42:36.002Z,97451.8
2023-03-06T01:43:40.386Z,97451.72
2023-03-06T01:44:36.613Z,97446.44
2023-03-06T01:46:38.729Z,97448.77
2023-03-06T01:47:37.887Z,97439.36
2023-03-06T01:48:38.055Z,97444.8
2023-03-06T01:49:39.939Z,97439.4
2023-03-06T01:50:38.065Z,97441.97
2023-03-06T01:53:43.220Z,97441.17
2023-03-06T01:54:53.662Z,97440.33
2023-03-06T01:55:45.431Z,97441.95
2023-03-06T01:56:46.412Z,97439.3
2023-03-06T01:57:47.263Z,97434.42
2023-03-06T01:58:45.491Z,97440.59
2023-03-06T01:59:48.052Z,97444.17
2023-03-06T02:00:45.662Z,97438.52
2023-03-06T02:01:46.416Z,97438.64
2023-03-06T02:02:49.799Z,97443.69
2023-03-06T02:03:48.074Z,97439.93
2023-03-06T02:04:46.946Z,97445.09
2023-03-06T02:05:46.647Z,97445.16
2023-03-06T02:06:47.385Z,97447.28
2023-03-06T02:07:47.674Z,97445.38
2023-03-06T02:08:48.340Z,97443.45
2023-03-06T02:09:46.864Z,97445.47
2023-03-06T02:11:47.397Z,97452.27
2023-03-06T02:12:48.043Z,97449.34
2023-03-06T02:13:48.103Z,97452.38
2023-03-06T02:14:47.600Z,97453.86
2023-03-06T02:15:47.399Z,97450.36
2023-03-06T02:16:47.859Z,97444.47
2023-03-06T02:17:47.942Z,97447.96
2023-03-06T02:18:48.603Z,97452.56
2023-03-06T02:20:50.793Z,97447.16
2023-03-06T02:21:49.354Z,97452.58
2023-03-06T02:24:58.762Z,97440.3
2023-03-06T02:25:56.322Z,97443.41
2023-03-06T02:26:56.434Z,97445.97
2023-03-06T02:27:55.448Z,97450.38
2023-03-06T02:28:55.627Z,97443.95
2023-03-06T02:29:55.552Z,97444.86
2023-03-06T02:30:56.640Z,97447.64
2023-03-06T02:31:55.748Z,97440.55
2023-03-06T02:32:56.072Z,97445.24
2023-03-06T02:34:57.544Z,97443.42
2023-03-06T02:36:02.040Z,97443.12
2023-03-06T02:37:00.378Z,97438.94
2023-03-06T02:38:04.401Z,97444.12
2023-03-06T02:39:01.013Z,97441.41
2023-03-06T02:40:06.967Z,97442.44
2023-03-06T02:41:04.387Z,97441.28
2023-03-06T02:42:03.248Z,97441.33
2023-03-06T02:43:03.349Z,97440.73
2023-03-06T02:44:03.223Z,97435.35
2023-03-06T02:45:05.126Z,97440.52
2023-03-06T02:46:03.402Z,97442.11
2023-03-06T02:47:03.347Z,97441.95
2023-03-06T02:48:03.658Z,97443.3
2023-03-06T02:49:03.523Z,97433.7
2023-03-06T02:50:03.595Z,97438.09
2023-03-06T02:51:03.402Z,97436.86
2023-03-06T02:52:03.599Z,97437.8
2023-03-06T02:53:03.740Z,97435.13
2023-03-06T02:54:03.498Z,97435.47
2023-03-06T02:55:03.916Z,97435.34
2023-03-06T02:56:03.456Z,97440.12
2023-03-06T02:57:03.607Z,97434.34
2023-03-06T02:58:04.128Z,97429.67
2023-03-06T02:59:03.602Z,97433.78
2023-03-06T03:00:04.480Z,97435.58
2023-03-06T03:01:04.133Z,97430.67
2023-03-06T03:02:04.065Z,97430.83
2023-03-06T03:03:04.869Z,97436.91
2023-03-06T03:04:05.071Z,97433.17
2023-03-06T03:05:04.533Z,97433.15
2023-03-06T03:06:04.972Z,97432.84
2023-03-06T03:07:04.123Z,97440.16
2023-03-06T03:08:04.194Z,97433.62
2023-03-06T03:09:04.124Z,97434.98
2023-03-06T03:10:04.401Z,97434.3
2023-03-06T03:11:04.321Z,97433.01
2023-03-06T03:12:05.038Z,97432.84
2023-03-06T03:13:04.226Z,97430.77
2023-03-06T03:14:04.173Z,97432.83
2023-03-06T03:15:04.768Z,97431.36
2023-03-06T03:16:05.651Z,97431.72
2023-03-06T03:17:04.296Z,97432.09
2023-03-06T03:18:04.308Z,97430.25
2023-03-06T03:19:04.255Z,97430.63
2023-03-06T03:20:04.986Z,97432.16
2023-03-06T03:21:07.295Z,97431.77
2023-03-06T03:22:04.303Z,97429.7
2023-03-06T03:23:04.311Z,97428.05
2023-03-06T03:24:04.532Z,97429.98
2023-03-06T03:25:04.710Z,97431.97
2023-03-06T03:26:12.279Z,97425.27
2023-03-06T03:27:09.374Z,97428.42
2023-03-06T03:28:09.130Z,97427.62
2023-03-06T03:29:09.163Z,97431.87
2023-03-06T03:30:12.098Z,97429.41
2023-03-06T03:31:09.783Z,97435.42
2023-03-06T03:32:09.417Z,97434.31
2023-03-06T03:33:09.585Z,97430.39
2023-03-06T03:34:09.280Z,97433.92
2023-03-06T03:35:10.410Z,97427.07
2023-03-06T03:36:09.584Z,97427.34
2023-03-06T03:37:09.641Z,97427.19
2023-03-06T03:38:09.347Z,97426.39
2023-03-06T03:39:09.330Z,97428.55
2023-03-06T03:40:09.735Z,97425.34
2023-03-06T03:41:09.346Z,97427.34
2023-03-06T03:42:09.438Z,97425.53
2023-03-06T03:43:09.379Z,97426.62
2023-03-06T03:44:09.882Z,97424.49
2023-03-06T03:45:10.080Z,97432.12
2023-03-06T03:46:09.442Z,97422.31
2023-03-06T03:47:09.519Z,97420.16
2023-03-06T03:48:09.476Z,97421.61
2023-03-06T03:49:09.487Z,97417.63
2023-03-06T03:50:10.369Z,97411.8
2023-03-06T03:51:10.539Z,97414.45
2023-03-06T03:52:09.530Z,97414.81
2023-03-06T03:53:09.730Z,97418.86
2023-03-06T03:54:09.625Z,97422.23
2023-03-06T03:55:09.936Z,97416.31
2023-03-06T03:56:10.253Z,97420.53
2023-03-06T03:57:09.577Z,97416.94
2023-03-06T03:58:10.080Z,97413.36
2023-03-06T03:59:10.408Z,97408.45
2023-03-06T04:00:10.862Z,97410.55
2023-03-06T04:01:10.296Z,97411.58
2023-03-06T04:02:10.229Z,97410.21
2023-03-06T04:03:10.182Z,97411.52
2023-03-06T04:04:10.187Z,97410.46
2023-03-06T04:05:10.916Z,97406.04
2023-03-06T04:06:10.227Z,97408.65
2023-03-06T04:07:10.328Z,97408.34
2023-03-06T04:08:10.232Z,97409.73
2023-03-06T04:09:10.285Z,97413.67
2023-03-06T04:10:11.625Z,97409.56
2023-03-06T04:11:10.468Z,97404.73
2023-03-06T04:12:10.304Z,97411.16
2023-03-06T04:13:10.350Z,97410.28
2023-03-06T04:14:10.359Z,97411.03
2023-03-06T04:15:10.739Z,97410.18
2023-03-06T04:16:10.533Z,97410.06
2023-03-06T04:17:10.424Z,97406.7
2023-03-06T04:18:10.507Z,97410.34
2023-03-06T04:19:10.477Z,97408.66
2023-03-06T04:20:10.910Z,97408.58
2023-03-06T04:21:10.439Z,97403.7
2023-03-06T04:22:10.499Z,97401.64
2023-03-06T04:23:10.625Z,97404.88
2023-03-06T04:24:10.530Z,97400.62
2023-03-06T04:25:10.523Z,97402.47
2023-03-06T04:26:10.496Z,97398.89
2023-03-06T04:27:10.570Z,97394.83
2023-03-06T04:28:11.143Z,97396.45
2023-03-06T04:29:10.584Z,97404.7
2023-03-06T04:30:11.315Z,97403.71
2023-03-06T04:31:12.361Z,97404.39
2023-03-06T04:32:10.912Z,97403.49
2023-03-06T04:33:10.733Z,97399.4
2023-03-06T04:34:10.659Z,97402.89
2023-03-06T04:35:10.685Z,97403.94
2023-03-06T04:36:19.168Z,97406.77
2023-03-06T04:37:22.693Z,97400.55
2023-03-06T04:38:18.951Z,97407.42
2023-03-06T04:39:18.932Z,97402.77
2023-03-06T04:40:20.525Z,97402.59
2023-03-06T04:41:19.021Z,97398.51
2023-03-06T04:42:19.051Z,97401.06
2023-03-06T04:43:19.058Z,97399.56
2023-03-06T04:44:19.009Z,97401.5
2023-03-06T04:45:19.026Z,97402.03
2023-03-06T04:46:19.142Z,97403.26
2023-03-06T04:47:19.427Z,97399.18
2023-03-06T04:48:19.125Z,97404.09
2023-03-06T04:49:19.128Z,97402.81
2023-03-06T04:50:19.318Z,97399.42
2023-03-06T04:51:19.132Z,97404.06
2023-03-06T04:52:19.141Z,97400.38
2023-03-06T04:53:19.213Z,97403.91
2023-03-06T04:54:19.242Z,97405.69
2023-03-06T04:55:19.724Z,97403.86
2023-03-06T04:56:19.202Z,97400.69
2023-03-06T04:57:19.218Z,97399.23
2023-03-06T04:58:19.273Z,97400.36
2023-03-06T04:59:19.261Z,97398.84
2023-03-06T05:00:20.319Z,97399.28
2023-03-06T05:01:19.616Z,97401.53
2023-03-06T05:02:19.421Z,97398.62
2023-03-06T05:03:19.353Z,97396.92
2023-03-06T05:04:19.360Z,97394.5
2023-03-06T05:05:19.629Z,97397.07
2023-03-06T05:06:19.355Z,97396.6
2023-03-06T05:07:19.377Z,97396.14
2023-03-06T05:08:19.581Z,97397.19
2023-03-06T05:09:19.412Z,97396.73
2023-03-06T05:10:20.483Z,97398.72
2023-03-06T05:11:19.434Z,97400.7
2023-03-06T05:12:19.447Z,97400.82
2023-03-06T05:13:19.484Z,97398.16
2023-03-06T05:14:20.386Z,97391.27
2023-03-06T05:15:19.616Z,97393.09
2023-03-06T05:16:19.555Z,97395.44
2023-03-06T05:17:19.614Z,97397.86
2023-03-06T05:18:19.967Z,97398.71
2023-03-06T05:19:19.564Z,97401.83
2023-03-06T05:20:19.749Z,97394.19
2023-03-06T05:21:19.610Z,97394.55
2023-03-06T05:22:19.678Z,97395.23
2023-03-06T05:23:19.641Z,97393.95
2023-03-06T05:24:19.652Z,97398.23
2023-03-06T05:25:19.737Z,97397.05
2023-03-06T05:26:19.823Z,97395.31
2023-03-06T05:27:19.710Z,97396.69
2023-03-06T05:28:19.976Z,97393.64
2023-03-06T05:29:19.708Z,97396.3
2023-03-06T05:30:19.899Z,97397.55
2023-03-06T05:31:19.897Z,97395.14
2023-03-06T05:32:20.037Z,97398.69
2023-03-06T05:33:19.792Z,97400.48
2023-03-06T05:34:19.822Z,97399.52
2023-03-06T05:35:21.481Z,97397.55
2023-03-06T05:36:19.870Z,97396.95
2023-03-06T05:37:19.902Z,97394.5
2023-03-06T05:38:20.139Z,97396.97
2023-03-06T05:39:19.893Z,97398.89
2023-03-06T05:40:19.952Z,97398.36
2023-03-06T05:41:19.964Z,97394.64
2023-03-06T05:42:20.189Z,97394.98
2023-03-06T05:43:20.300Z,97394.12
2023-03-06T05:44:19.982Z,97391.62
2023-03-06T05:45:20.066Z,97394.47
2023-03-06T05:46:20.135Z,97395.15
2023-03-06T05:47:20.020Z,97399.41
2023-03-06T05:48:20.044Z,97397.39
2023-03-06T05:49:20.073Z,97395.27
2023-03-06T05:50:20.183Z,97400.56
2023-03-06T05:51:20.270Z,97399.23
2023-03-06T05:52:20.126Z,97397.45
2023-03-06T05:53:20.144Z,97397.03
2023-03-06T05:54:20.313Z,97401.81
2023-03-06T05:55:20.168Z,97395.74
2023-03-06T05:56:20.254Z,97400.05
2023-03-06T05:57:20.667Z,97398.58
2023-03-06T05:58:20.226Z,97394.24
2023-03-06T05:59:20.230Z,97399.45
2023-03-06T06:00:20.737Z,97404.9
2023-03-06T06:01:20.693Z,97402.13
2023-03-06T06:02:20.328Z,97399.27
2023-03-06T06:03:20.672Z,97398.89
2023-03-06T06:04:23.086Z,97393.35
2023-03-06T06:05:22.272Z,97402.77
2023-03-06T06:06:22.584Z,97400.84
2023-03-06T06:07:22.327Z,97398.75
2023-03-06T06:08:22.286Z,97400.59
2023-03-06T06:09:22.445Z,97399.23
2023-03-06T06:10:22.309Z,97391.08
2023-03-06T06:11:22.425Z,97400.23
2023-03-06T06:12:22.376Z,97398.53
2023-03-06T06:13:22.344Z,97398.2
2023-03-06T06:14:22.579Z,97394.16
2023-03-06T06:15:22.427Z,97400.5
2023-03-06T06:16:22.388Z,97398.1
2023-03-06T06:17:22.611Z,97396.62
2023-03-06T06:18:22.428Z,97393.88
2023-03-06T06:19:22.572Z,97397.87
2023-03-06T06:20:22.453Z,97402.14
2023-03-06T06:21:22.475Z,97399.54
2023-03-06T06:22:22.496Z,97395.36
2023-03-06T06:23:22.509Z,97398.22
2023-03-06T06:24:24.464Z,97397.02
2023-03-06T06:25:22.521Z,97402.77
2023-03-06T06:26:22.530Z,97403.19
2023-03-06T06:27:22.548Z,97400.42
2023-03-06T06:28:22.583Z,97399.84
2023-03-06T06:29:23.196Z,97396.22
2023-03-06T06:30:22.752Z,97396.45
2023-03-06T06:31:22.654Z,97400.79
2023-03-06T06:32:22.666Z,97397.89
2023-03-06T06:33:23.225Z,97399.38
2023-03-06T06:34:23.305Z,97395.09
2023-03-06T06:35:22.764Z,97399.06
2023-03-06T06:36:22.695Z,97401.62
2023-03-06T06:37:22.814Z,97400.89
2023-03-06T06:38:22.722Z,97402.3
2023-03-06T06:39:23.335Z,97402.88
2023-03-06T06:40:22.871Z,97403.64
2023-03-06T06:42:33.343Z,97408.73
2023-03-06T06:43:28.406Z,97413.64
2023-03-06T06:44:28.543Z,97411.92
2023-03-06T06:45:28.429Z,97409.62
2023-03-06T06:47:14.368Z,97408.81
2023-03-06T06:47:29.687Z,97405.84
2023-03-06T06:48:29.658Z,97409.98
2023-03-06T06:49:29.620Z,97413.19
2023-03-06T06:50:29.691Z,97413.39
2023-03-06T06:51:33.543Z,97419.73
2023-03-06T06:52:29.808Z,97415.68
2023-03-06T06:53:30.212Z,97414.75
2023-03-06T06:54:29.815Z,97416.26
2023-03-06T06:55:29.863Z,97413.47
2023-03-06T06:56:29.857Z,97415.46
2023-03-06T06:57:29.902Z,97411.64
2023-03-06T06:58:29.912Z,97420.19
2023-03-06T06:59:29.905Z,97418.36
2023-03-06T07:00:30.146Z,97418.36
2023-03-06T07:01:30.187Z,97420.88
2023-03-06T07:02:30.064Z,97419.33
2023-03-06T07:03:30.102Z,97422.48
2023-03-06T07:04:29.952Z,97419.83
2023-03-06T07:05:30.062Z,97420.97
2023-03-06T07:06:30.018Z,97418.03
2023-03-06T07:07:30.376Z,97418.97
2023-03-06T07:08:30.164Z,97419.27
2023-03-06T07:09:30.354Z,97419.5
2023-03-06T07:10:30.231Z,97415.67
2023-03-06T07:11:30.243Z,97417.22
2023-03-06T07:12:30.108Z,97419.05
2023-03-06T07:13:30.326Z,97414.2
2023-03-06T07:14:30.211Z,97412.19
2023-03-06T07:15:30.231Z,97413.38
2023-03-06T07:16:30.245Z,97412.32
2023-03-06T07:17:30.388Z,97412.55
2023-03-06T07:18:30.359Z,97417.48
2023-03-06T07:19:30.145Z,97416.53
2023-03-06T07:20:30.536Z,97414.57
2023-03-06T07:21:30.156Z,97415.88
2023-03-06T07:22:35.860Z,97417.75
2023-03-06T07:23:32.845Z,97416.35
2023-03-06T07:24:32.778Z,97420.58
2023-03-06T07:25:32.775Z,97420.94
2023-03-06T07:26:34.775Z,97420.41
2023-03-06T07:27:32.807Z,97422
2023-03-06T07:28:46.187Z,97419.46
2023-03-06T07:29:38.220Z,97418.97
2023-03-06T07:30:40.303Z,97423.55
2023-03-06T07:31:38.369Z,97420.78
2023-03-06T07:32:38.288Z,97414.02
2023-03-06T07:33:39.051Z,97412.3
2023-03-06T07:34:38.188Z,97419.48
2023-03-06T07:35:38.355Z,97416.33
2023-03-06T07:36:38.266Z,97419.34
2023-03-06T07:37:38.258Z,97414.95
2023-03-06T07:38:38.302Z,97412.86
2023-03-06T07:39:38.518Z,97419.5
2023-03-06T07:40:38.941Z,97418.7
2023-03-06T07:41:38.312Z,97423.11
2023-03-06T07:42:38.363Z,97421.83
2023-03-06T07:43:38.384Z,97418.19
2023-03-06T07:44:38.535Z,97416.59
2023-03-06T07:45:38.517Z,97413.67
2023-03-06T07:46:38.465Z,97415.59
2023-03-06T07:47:38.905Z,97419.81
2023-03-06T07:48:38.561Z,97413.88
2023-03-06T07:49:38.403Z,97421.65
2023-03-06T07:50:38.376Z,97427.09
2023-03-06T07:51:38.436Z,97420.77
2023-03-06T07:52:38.528Z,97417.73
2023-03-06T07:53:38.622Z,97421.88
2023-03-06T07:54:38.524Z,97419.33
2023-03-06T07:55:39.663Z,97419.89
2023-03-06T07:56:38.501Z,97412.85
2023-03-06T07:57:38.701Z,97411.05
2023-03-06T07:58:40.604Z,97411.33
2023-03-06T07:59:38.549Z,97413.77
2023-03-06T08:00:38.868Z,97413.88
2023-03-06T08:01:38.748Z,97409
2023-03-06T08:02:38.778Z,97411.52
2023-03-06T08:03:38.658Z,97407.95
2023-03-06T08:04:38.937Z,97405.78
2023-03-06T08:05:38.834Z,97417.55
2023-03-06T08:06:38.788Z,97406.23
2023-03-06T08:07:38.726Z,97410.5
2023-03-06T08:08:39.506Z,97411.6
2023-03-06T08:09:38.872Z,97410
2023-03-06T08:10:38.961Z,97407.42
2023-03-06T08:11:38.798Z,97414.14
2023-03-06T08:12:39.287Z,97415.66
2023-03-06T08:13:41.594Z,97414.66
2023-03-06T08:14:38.865Z,97412.16
2023-03-06T08:15:38.837Z,97406.94
2023-03-06T08:16:38.871Z,97409.09
2023-03-06T08:17:39.233Z,97411.38
2023-03-06T08:18:38.766Z,97408.14
2023-03-06T08:19:38.881Z,97414.17
2023-03-06T08:20:38.794Z,97410.2
2023-03-06T08:21:38.802Z,97420.44
2023-03-06T08:22:38.887Z,97422.55
2023-03-06T08:23:39.547Z,97422.91
2023-03-06T08:24:39.010Z,97417.64
2023-03-06T08:25:39.119Z,97420.14
2023-03-06T08:26:39.103Z,97423.23
2023-03-06T08:27:39.324Z,97419.98
2023-03-06T08:28:39.409Z,97420.37
2023-03-06T08:29:39.089Z,97422.25
2023-03-06T08:30:39.121Z,97425.65
2023-03-06T08:31:40.915Z,97430.2
2023-03-06T08:32:39.422Z,97429.88
2023-03-06T08:33:40.041Z,97429.3
2023-03-06T08:34:38.971Z,97436.24
2023-03-06T08:35:39.006Z,97436.73
2023-03-06T08:36:39.328Z,97438.09
2023-03-06T08:37:39.043Z,97435.27
2023-03-06T08:38:39.128Z,97431.71
2023-03-06T08:39:39.755Z,97430.7
2023-03-06T08:40:39.120Z,97432.22
2023-03-06T08:41:39.318Z,97427.99
2023-03-06T08:42:39.302Z,97426.7
2023-03-06T08:43:39.089Z,97431.44
2023-03-06T08:44:39.083Z,97429.48
2023-03-06T08:45:39.232Z,97434.73
2023-03-06T08:46:39.557Z,97436.31
2023-03-06T08:47:39.124Z,97435.24
2023-03-06T08:48:44.460Z,97438.91
2023-03-06T08:49:41.159Z,97434.83
2023-03-06T08:50:41.179Z,97440.48
2023-03-06T08:51:41.234Z,97441.11
2023-03-06T08:52:41.180Z,97439.41
2023-03-06T08:53:43.526Z,97439.82
2023-03-06T08:54:41.220Z,97443.16
2023-03-06T08:55:41.200Z,97441.27
2023-03-06T08:56:41.200Z,97445.78
2023-03-06T08:57:41.222Z,97448.03
2023-03-06T08:58:41.287Z,97444.95
2023-03-06T08:59:41.297Z,97442.79
2023-03-06T09:00:41.440Z,97448.5
2023-03-06T09:01:41.496Z,97449.75
2023-03-06T09:02:41.462Z,97454.16
2023-03-06T09:03:41.354Z,97445.06
2023-03-06T09:04:41.478Z,97456.62
2023-03-06T09:05:41.395Z,97452.48
2023-03-06T09:06:42.439Z,97450
2023-03-06T09:07:41.395Z,97444.48
2023-03-06T09:08:41.433Z,97451.73
2023-03-06T09:09:41.419Z,97455.59
2023-03-06T09:10:45.276Z,97452.34
2023-03-06T09:11:42.026Z,97449.59
2023-03-06T09:12:50.156Z,97452.12
2023-03-06T09:13:43.314Z,97450.66
2023-03-06T09:14:48.231Z,97455.95
2023-03-06T09:15:44.979Z,97455.59
2023-03-06T09:16:45.098Z,97456.52
2023-03-06T09:17:45.145Z,97453.77
2023-03-06T09:18:45.089Z,97457.36
2023-03-06T09:19:45.840Z,97457.72
2023-03-06T09:20:45.036Z,97461.46
2023-03-06T09:21:45.644Z,97455.91
2023-03-06T09:22:45.839Z,97455.11
2023-03-06T09:23:45.590Z,97455.75
2023-03-06T09:24:45.622Z,97460.2
2023-03-06T09:25:45.611Z,97459.84
2023-03-06T09:26:47.598Z,97457.8
2023-03-06T09:27:46.602Z,97456.77
2023-03-06T09:28:45.708Z,97454.2
2023-03-06T09:29:45.703Z,97452.73
2023-03-06T09:30:45.824Z,97451.69
2023-03-06T09:31:45.728Z,97455.46
2023-03-06T09:32:45.741Z,97459.72
2023-03-06T09:33:46.284Z,97459.39
2023-03-06T09:34:45.863Z,97459.45
2023-03-06T09:35:55.725Z,97456.07
2023-03-06T09:36:56.456Z,97455.77
2023-03-06T09:37:49.086Z,97452
2023-03-06T09:38:49.203Z,97453.11
2023-03-06T09:39:49.051Z,97450.41
2023-03-06T09:41:49.772Z,97452.78
2023-03-06T09:42:50.665Z,97451.05
2023-03-06T09:43:51.518Z,97451.41
2023-03-06T09:44:51.549Z,97449.78
2023-03-06T09:45:49.312Z,97455.28
2023-03-06T09:50:07.515Z,97455.27
2023-03-06T09:51:10.506Z,97458.61
2023-03-06T09:54:15.324Z,97466.34
2023-03-06T09:55:17.596Z,97468.84
2023-03-06T09:56:17.907Z,97470.42
2023-03-06T09:58:22.019Z,97472.48
2023-03-06T09:59:23.052Z,97469.62
2023-03-06T10:00:23.670Z,97471.72
2023-03-06T10:01:22.496Z,97475.7
2023-03-06T10:03:24.635Z,97473.88
2023-03-06T10:05:31.596Z,97476.33
2023-03-06T10:07:33.145Z,97476.31
2023-03-06T10:09:41.191Z,97479.17
2023-03-06T10:11:45.326Z,97475.12
2023-03-06T10:12:47.239Z,97480.81
2023-03-06T10:13:45.147Z,97477.77
2023-03-06T10:14:47.761Z,97479.36
2023-03-06T10:15:47.091Z,97475.79
2023-03-06T10:16:45.181Z,97479.59
2023-03-06T10:17:45.483Z,97477.55
2023-03-06T10:18:45.400Z,97481
2023-03-06T10:19:45.322Z,97479.82
2023-03-06T10:20:53.585Z,97480.5
2023-03-06T10:23:03.178Z,97482.6
2023-03-06T10:26:02.381Z,97478.67
2023-03-06T10:32:23.549Z,97479.7
2023-03-06T10:33:22.259Z,97481.62
2023-03-06T10:34:23.235Z,97477.65
2023-03-06T10:35:22.673Z,97476.11
2023-03-06T10:36:20.560Z,97473.11
2023-03-06T10:37:21.396Z,97477.59
2023-03-06T10:39:22.296Z,97476.14
2023-03-06T10:40:24.761Z,97474.22
2023-03-06T10:41:24.051Z,97478.67
2023-03-06T10:42:24.830Z,97474.25
2023-03-06T10:43:22.319Z,97475.66
2023-03-06T10:44:22.034Z,97476.72
2023-03-06T10:45:21.288Z,97472.59
2023-03-06T10:48:29.231Z,97473.67
2023-03-06T10:50:30.550Z,97472.84
2023-03-06T10:51:30.009Z,97472.83
2023-03-06T10:52:30.273Z,97471.62
2023-03-06T10:53:28.820Z,97473.91
2023-03-06T10:54:30.105Z,97475.84
2023-03-06T10:55:30.402Z,97473.53
2023-03-06T10:57:31.767Z,97473.16
2023-03-06T10:58:32.186Z,97476.28
2023-03-06T10:59:31.078Z,97472.94
2023-03-06T11:00:35.093Z,97473.85
2023-03-06T11:01:31.737Z,97483.86
2023-03-06T11:02:33.233Z,97483.51
2023-03-06T11:03:31.460Z,97482.41
2023-03-06T11:04:35.331Z,97486.2
2023-03-06T11:05:31.738Z,97484.16
2023-03-06T11:06:32.836Z,97482.08
2023-03-06T11:07:35.122Z,97478.58
2023-03-06T11:08:31.843Z,97481.05
2023-03-06T11:09:31.822Z,97482.02
2023-03-06T11:10:31.844Z,97482.41
2023-03-06T11:11:37.775Z,97477.98
2023-03-06T11:12:43.253Z,97479.35
2023-03-06T11:13:36.042Z,97475.64
2023-03-06T11:14:34.483Z,97474.7
2023-03-06T11:15:34.550Z,97469.05
2023-03-06T11:16:34.597Z,97473.39
2023-03-06T11:18:39.883Z,97470.9
2023-03-06T11:19:37.704Z,97472.38
2023-03-06T11:20:51.601Z,97474.89
2023-03-06T11:21:39.429Z,97469.24
2023-03-06T11:22:39.759Z,97465.39
2023-03-06T11:23:45.939Z,97465
2023-03-06T11:24:45.686Z,97466.09
2023-03-06T11:25:47.176Z,97470.88
2023-03-06T11:26:49.084Z,97467.34
2023-03-06T11:27:49.669Z,97468.16
2023-03-06T11:29:53.639Z,97467.52
2023-03-06T11:33:02.953Z,97470.47
2023-03-06T11:35:06.481Z,97472.64
2023-03-06T11:37:08.149Z,97469.81
2023-03-06T11:42:23.762Z,97466.16
2023-03-06T11:45:34.198Z,97470.38
2023-03-06T11:46:32.976Z,97472.86
2023-03-06T11:47:36.562Z,97469.75
2023-03-06T11:48:41.497Z,97468.05
2023-03-06T11:49:45.589Z,97468.38
2023-03-06T11:50:46.521Z,97470.95
2023-03-06T11:51:48.584Z,97468.55
2023-03-06T11:52:51.000Z,97469.42
2023-03-06T11:53:50.796Z,97469.41
2023-03-06T11:54:50.654Z,97464.49
2023-03-06T11:56:54.878Z,97464.23
2023-03-06T11:58:01.364Z,97469.49
2023-03-06T12:07:25.570Z,97473.59
2023-03-06T12:11:34.593Z,97471.81
2023-03-06T12:15:47.309Z,97475.95
2023-03-06T12:16:52.807Z,97476.8
2023-03-06T12:22:57.771Z,97482.41
2023-03-06T12:33:26.230Z,97483.07
2023-03-06T12:45:56.648Z,97478.84
2023-03-06T12:47:03.498Z,97468.47
2023-03-06T12:47:56.320Z,97468.12
2023-03-06T12:49:02.680Z,97471.94
2023-03-06T12:50:02.688Z,97471.34
2023-03-06T12:50:59.739Z,97470.03
2023-03-06T12:52:00.613Z,97469.3
2023-03-06T12:53:07.528Z,97469.33
2023-03-06T12:54:04.488Z,97470.12
2023-03-06T12:55:06.109Z,97465.56
2023-03-06T12:56:04.746Z,97461.81
2023-03-06T12:57:05.733Z,97465.67
2023-03-06T13:03:22.956Z,97457.99
2023-03-06T13:07:36.484Z,97458.25
2023-03-06T13:10:38.791Z,97453.3
2023-03-06T13:11:49.909Z,97451.77
2023-03-06T13:13:44.585Z,97458.16
2023-03-06T13:15:43.003Z,97454.65
2023-03-06T13:16:41.865Z,97454.11
2023-03-06T13:17:41.825Z,97450.4
2023-03-06T13:18:46.671Z,97453.95
2023-03-06T13:19:43.556Z,97450.2
2023-03-06T13:20:45.916Z,97456.02
2023-03-06T13:22:46.173Z,97452.91
2023-03-06T13:24:45.752Z,97453.63
2023-03-06T13:25:47.581Z,97452.06
2023-03-06T13:28:54.089Z,97452.41
2023-03-06T13:29:51.420Z,97452.11
2023-03-06T13:30:52.028Z,97452
2023-03-06T13:32:52.133Z,97454.33
2023-03-06T13:33:53.914Z,97453.48
2023-03-06T13:34:52.102Z,97449.09
2023-03-06T13:35:55.712Z,97456.98
2023-03-06T13:36:52.579Z,97452.88
2023-03-06T13:37:52.881Z,97457.77